Portada
METAR-TAF:

METAR-TAF

Aeroports :

Winston-Salem, Carolina del Nord, Estats Units d'Amèrica

latitud: 36-08-00N, longitud: 080-13-29W, altitud: 295 m

Observació

L'informe es va fer fa 52 minuts, a les 21:54 UTC
Vent 3 kt del Nord-Est
Temperatura 2°C
Humitat 35%
Pressió 1027 hPa
Visibilitat: 16.1 km
Cel clar

METAR: KINT 132154Z 05003KT 10SM CLR 02/M12 A3034 RMK AO2 SLP281 T00221122

Hora: 17:46 (22:46 UTC)

Pronòstic

L'informe es va fer fa 5 hores i 7 minuts, a les 17:39 UTC
Pronòstic vàlid del 13 a les 18 UTC al 14 a les 18 UTC
Vent 5 kt del Est/Nord-Est
Visibilitat: 10 km
Escasses núvols a una alçada de 25000 ft
A partir de les 14 a les 1500 UTC
Vent 4 kt del Nord/Nord-Est
Visibilitat: 10 km
Escasses núvols a una alçada de 1500 ft
Cel ennuvolat a una alçada de 3500 ft
Cel cobert a una alçada de 20000 ft

TAF: KINT 131739Z 1318/1418 06005KT P6SM FEW250 FM141500 03004KT P6SM FEW015 BKN035 OVC200

Observacions i pronòstics meteorològics de més de 4000 aeroports (METAR i TAF).

Les estacions disponibles són els punts grocs i vermells al mapa.

Posi el ratolí al punt desitjat per veure el nom de l'estació.

Feu clic per veure les observacions i els pronòstics meteorològics.

Per canviar el mapa: feu clic els botons verds amb una creu de color negre per apropar; al botó verd amb un guió per allunyar la imatge; o en les fletxes verdes per a mapes adjacents.


METAR-TAF: